Koyo — JD2279 — position and weather

sailwx.info

Track history (hours):
 
Tides and Currents Weather Stations Pressure Air Temp Water Temp Dewpoint Dewpoint Depression Visibility Wind Speed Wind Dir Waves Ship Positions

Koyo

Last reported at 2014-Nov-01 13:30 UTC. Time now 2014-Nov-01 14:04 UTC.
Position N 34°41' E 135°12'.

Length 80 m; draft 3.6 m.

Type: Cargo ship. MMSI: 431301812.

Date/timePositionNaut miles runAvg speedWind from/ knotsBaromVisibWave heightAir tempDewpointWater temp
2014-Nov-01 13:30N 34°41' E 135°12'0 0.0
2014-Nov-01 12:30N 34°41' E 135°12'0 0.0
2014-Nov-01 11:30N 34°41' E 135°12'0 0.0
2014-Nov-01 10:31N 34°41' E 135°12'8 8.2
2014-Nov-01 09:33N 34°33' E 135°14'1313.1
2014-Nov-01 08:33N 34°22' E 135°04'1313.3
2014-Nov-01 07:33N 34°12' E 134°54'22 1.4
2014-Oct-31 16:04N 34°33' E 134°46'612.1
2014-Oct-31 15:33N 34°35' E 134°53'1110.6
2014-Oct-31 14:33N 34°37' E 135°05'8 8.2
2014-Oct-31 13:33N 34°40' E 135°15'0 0.1
2014-Oct-31 12:31N 34°40' E 135°14'0 0.0
2014-Oct-31 11:31N 34°40' E 135°14'0 0.0
2014-Oct-31 10:33N 34°40' E 135°14'0 0.4
2014-Oct-31 09:33N 34°39' E 135°15'1 0.7
2014-Oct-31 08:28N 34°39' E 135°15'7 7.6
2014-Oct-31 07:33N 34°36' E 135°07'1110.7
2014-Oct-31 06:33N 34°35' E 134°54'11810.7
2014-Oct-30 19:32N 34°01' E 132°37'1611.1
2014-Oct-30 18:07N 33°51' E 132°23'9711.1
2014-Oct-30 09:19N 33°52' E 130°26'1013.3
2014-Oct-30 08:33N 33°44' E 130°18'7 7.4
2014-Oct-30 07:32N 33°39' E 130°25'0 0.0
2014-Oct-30 06:28N 33°39' E 130°25'0 0.1
2014-Oct-30 05:33N 33°39' E 130°24'7 7.4
2014-Oct-30 04:33N 33°44' E 130°18'118 9.1
2014-Oct-29 15:33N 34°02' E 132°39'11611.6
2014-Oct-29 05:32N 34°35' E 134°53'1212.2
2014-Oct-29 04:33N 34°36' E 135°08'1211.9
2014-Oct-29 03:33N 34°37' E 135°22'2 1.8
2014-Oct-29 02:18N 34°38' E 135°25'0 0.0
2014-Oct-29 01:32N 34°38' E 135°25'9 9.3
2014-Oct-29 00:33N 34°40' E 135°14'0 0.1
2014-Oct-28 23:29N 34°40' E 135°14'2 1.7
2014-Oct-28 22:33N 34°39' E 135°16'10 9.6
2014-Oct-28 21:33N 34°35' E 135°05'1511.9
2014-Oct-28 20:16N 34°32' E 134°47'12111.3
2014-Oct-28 09:33N 34°08' E 132°23'1211.8
2014-Oct-28 08:33N 34°20' E 132°26'4 3.9
2014-Oct-28 07:30N 34°21' E 132°31'1 1.0
2014-Oct-28 06:33N 34°21' E 132°29'1111.3
2014-Oct-28 05:33N 34°13' E 132°20'125 5.2
2014-Oct-27 05:26N 34°34' E 134°50'1010.5
2014-Oct-27 04:30N 34°37' E 135°01'1010.0
2014-Oct-27 03:33N 34°37' E 135°13'3 2.6
2014-Oct-27 02:31N 34°39' E 135°15'0 0.0
2014-Oct-27 01:31N 34°39' E 135°15'0 0.0
2014-Oct-27 00:31N 34°39' E 135°15'2 2.3
2014-Oct-26 23:28N 34°41' E 135°13'0 0.0
2014-Oct-26 22:22N 34°41' E 135°13'0 0.0
2014-Oct-26 21:28N 34°41' E 135°13'0 0.0
2014-Oct-26 20:22N 34°41' E 135°13'0 0.0
2014-Oct-26 19:28N 34°41' E 135°13'0 0.0
2014-Oct-26 18:28N 34°41' E 135°13'0 0.0
2014-Oct-26 17:28N 34°41' E 135°13'0 0.0
2014-Oct-26 16:28N 34°41' E 135°13'0 0.0
2014-Oct-26 15:28N 34°41' E 135°13'0 0.0
2014-Oct-26 14:28N 34°41' E 135°13'0 0.0
2014-Oct-26 13:22N 34°41' E 135°13'0 0.0
2014-Oct-26 12:28N 34°41' E 135°13'0 0.0
2014-Oct-26 11:28N 34°41' E 135°13'0 0.0
2014-Oct-26 10:28N 34°41' E 135°13'0 0.0
2014-Oct-26 09:33N 34°41' E 135°13'8 7.8
2014-Oct-26 08:33N 34°33' E 135°14'1312.7
2014-Oct-26 07:33N 34°23' E 135°05'1211.6
2014-Oct-26 06:33N 34°13' E 134°58'199 6.2
2014-Oct-24 22:33N 32°08' E 131°54'1212.4
2014-Oct-24 21:33N 32°17' E 132°04'17912.7
2014-Oct-24 07:26N 34°04' E 134°55'1314.3
2014-Oct-24 06:32N 34°17' E 134°58'1414.0
2014-Oct-24 05:33N 34°29' E 135°07'1312.7
2014-Oct-24 04:33N 34°40' E 135°15'0 0.2
2014-Oct-24 03:26N 34°40' E 135°14'0 0.1
2014-Oct-24 02:32N 34°40' E 135°14'0 0.0
2014-Oct-24 01:26N 34°40' E 135°14'0 0.5
2014-Oct-24 00:33N 34°39' E 135°15'2 1.6
2014-Oct-23 23:33N 34°40' E 135°13'0 0.0
2014-Oct-23 22:27N 34°40' E 135°13'0 0.0
2014-Oct-23 21:33N 34°40' E 135°13'0 0.0
2014-Oct-23 20:33N 34°40' E 135°13'3 3.4
2014-Oct-23 19:34N 34°37' E 135°14'1312.8
2014-Oct-23 18:33N 34°37' E 134°59'11912.6
2014-Oct-23 09:06N 34°02' E 132°41'  
Track history (hours):
 
Tides and Currents Weather Stations Pressure Air Temp Water Temp Dewpoint Dewpoint Depression Visibility Wind Speed Wind Dir Waves Ship Positions

Koyo

Last reported at 2014-Nov-01 13:30 UTC. Time now 2014-Nov-01 14:04 UTC.
Position N 34°41' E 135°12'.

Length 80 m; draft 3.6 m.

Type: Cargo ship. MMSI: 431301812.

Date/timePositionNaut miles runAvg speedWind from/ knotsBaromVisibWave heightAir tempDewpointWater temp
2014-Nov-01 13:30N 34°41' E 135°12'0 0.0
2014-Nov-01 12:30N 34°41' E 135°12'0 0.0
2014-Nov-01 11:30N 34°41' E 135°12'0 0.0
2014-Nov-01 10:31N 34°41' E 135°12'8 8.2
2014-Nov-01 09:33N 34°33' E 135°14'1313.1
2014-Nov-01 08:33N 34°22' E 135°04'1313.3
2014-Nov-01 07:33N 34°12' E 134°54'22 1.4
2014-Oct-31 16:04N 34°33' E 134°46'612.1
2014-Oct-31 15:33N 34°35' E 134°53'1110.6
2014-Oct-31 14:33N 34°37' E 135°05'8 8.2
2014-Oct-31 13:33N 34°40' E 135°15'0 0.1
2014-Oct-31 12:31N 34°40' E 135°14'0 0.0
2014-Oct-31 11:31N 34°40' E 135°14'0 0.0
2014-Oct-31 10:33N 34°40' E 135°14'0 0.4
2014-Oct-31 09:33N 34°39' E 135°15'1 0.7
2014-Oct-31 08:28N 34°39' E 135°15'7 7.6
2014-Oct-31 07:33N 34°36' E 135°07'1110.7
2014-Oct-31 06:33N 34°35' E 134°54'11810.7
2014-Oct-30 19:32N 34°01' E 132°37'1611.1
2014-Oct-30 18:07N 33°51' E 132°23'9711.1
2014-Oct-30 09:19N 33°52' E 130°26'1013.3
2014-Oct-30 08:33N 33°44' E 130°18'7 7.4
2014-Oct-30 07:32N 33°39' E 130°25'0 0.0
2014-Oct-30 06:28N 33°39' E 130°25'0 0.1
2014-Oct-30 05:33N 33°39' E 130°24'7 7.4
2014-Oct-30 04:33N 33°44' E 130°18'118 9.1
2014-Oct-29 15:33N 34°02' E 132°39'11611.6
2014-Oct-29 05:32N 34°35' E 134°53'1212.2
2014-Oct-29 04:33N 34°36' E 135°08'1211.9
2014-Oct-29 03:33N 34°37' E 135°22'2 1.8
2014-Oct-29 02:18N 34°38' E 135°25'0 0.0
2014-Oct-29 01:32N 34°38' E 135°25'9 9.3
2014-Oct-29 00:33N 34°40' E 135°14'0 0.1
2014-Oct-28 23:29N 34°40' E 135°14'2 1.7
2014-Oct-28 22:33N 34°39' E 135°16'10 9.6
2014-Oct-28 21:33N 34°35' E 135°05'1511.9
2014-Oct-28 20:16N 34°32' E 134°47'12111.3
2014-Oct-28 09:33N 34°08' E 132°23'1211.8
2014-Oct-28 08:33N 34°20' E 132°26'4 3.9
2014-Oct-28 07:30N 34°21' E 132°31'1 1.0
2014-Oct-28 06:33N 34°21' E 132°29'1111.3
2014-Oct-28 05:33N 34°13' E 132°20'125 5.2
2014-Oct-27 05:26N 34°34' E 134°50'1010.5
2014-Oct-27 04:30N 34°37' E 135°01'1010.0
2014-Oct-27 03:33N 34°37' E 135°13'3 2.6
2014-Oct-27 02:31N 34°39' E 135°15'0 0.0
2014-Oct-27 01:31N 34°39' E 135°15'0 0.0
2014-Oct-27 00:31N 34°39' E 135°15'2 2.3
2014-Oct-26 23:28N 34°41' E 135°13'0 0.0
2014-Oct-26 22:22N 34°41' E 135°13'0 0.0
2014-Oct-26 21:28N 34°41' E 135°13'0 0.0
2014-Oct-26 20:22N 34°41' E 135°13'0 0.0
2014-Oct-26 19:28N 34°41' E 135°13'0 0.0
2014-Oct-26 18:28N 34°41' E 135°13'0 0.0
2014-Oct-26 17:28N 34°41' E 135°13'0 0.0
2014-Oct-26 16:28N 34°41' E 135°13'0 0.0
2014-Oct-26 15:28N 34°41' E 135°13'0 0.0
2014-Oct-26 14:28N 34°41' E 135°13'0 0.0
2014-Oct-26 13:22N 34°41' E 135°13'0 0.0
2014-Oct-26 12:28N 34°41' E 135°13'0 0.0
2014-Oct-26 11:28N 34°41' E 135°13'0 0.0
2014-Oct-26 10:28N 34°41' E 135°13'0 0.0
2014-Oct-26 09:33N 34°41' E 135°13'8 7.8
2014-Oct-26 08:33N 34°33' E 135°14'1312.7
2014-Oct-26 07:33N 34°23' E 135°05'1211.6
2014-Oct-26 06:33N 34°13' E 134°58'199 6.2
2014-Oct-24 22:33N 32°08' E 131°54'1212.4
2014-Oct-24 21:33N 32°17' E 132°04'17912.7
2014-Oct-24 07:26N 34°04' E 134°55'1314.3
2014-Oct-24 06:32N 34°17' E 134°58'1414.0
2014-Oct-24 05:33N 34°29' E 135°07'1312.7
2014-Oct-24 04:33N 34°40' E 135°15'0 0.2
2014-Oct-24 03:26N 34°40' E 135°14'0 0.1
2014-Oct-24 02:32N 34°40' E 135°14'0 0.0
2014-Oct-24 01:26N 34°40' E 135°14'0 0.5
2014-Oct-24 00:33N 34°39' E 135°15'2 1.6
2014-Oct-23 23:33N 34°40' E 135°13'0 0.0
2014-Oct-23 22:27N 34°40' E 135°13'0 0.0
2014-Oct-23 21:33N 34°40' E 135°13'0 0.0
2014-Oct-23 20:33N 34°40' E 135°13'3 3.4
2014-Oct-23 19:34N 34°37' E 135°14'1312.8
2014-Oct-23 18:33N 34°37' E 134°59'11912.6
2014-Oct-23 09:06N 34°02' E 132°41'  

Dump ship's entire track history